sensor_id;sensor_type;location;lat;lon;timestamp;P1;durP1;ratioP1;P2;durP2;ratioP2
4569;SDS011;2297;51.442;6.996;2024-03-17T00:00:21;7.85;;;3.80;;
4569;SDS011;2297;51.442;6.996;2024-03-17T00:02:48;11.68;;;3.95;;
4569;SDS011;2297;51.442;6.996;2024-03-17T00:05:15;8.40;;;3.80;;
4569;SDS011;2297;51.442;6.996;2024-03-17T00:07:43;8.63;;;3.97;;
4569;SDS011;2297;51.442;6.996;2024-03-17T00:10:12;10.40;;;4.53;;
4569;SDS011;2297;51.442;6.996;2024-03-17T00:12:40;9.43;;;4.25;;
4569;SDS011;2297;51.442;6.996;2024-03-17T00:15:06;5.50;;;3.70;;
4569;SDS011;2297;51.442;6.996;2024-03-17T00:17:33;9.93;;;3.72;;
4569;SDS011;2297;51.442;6.996;2024-03-17T00:19:59;9.07;;;3.65;;
4569;SDS011;2297;51.442;6.996;2024-03-17T00:22:35;10.77;;;3.83;;
4569;SDS011;2297;51.442;6.996;2024-03-17T00:25:04;7.13;;;4.00;;
4569;SDS011;2297;51.442;6.996;2024-03-17T00:27:32;8.48;;;3.88;;
4569;SDS011;2297;51.442;6.996;2024-03-17T00:29:58;6.05;;;3.65;;
4569;SDS011;2297;51.442;6.996;2024-03-17T00:32:25;9.80;;;4.63;;
4569;SDS011;2297;51.442;6.996;2024-03-17T00:34:50;6.82;;;3.72;;
4569;SDS011;2297;51.442;6.996;2024-03-17T00:37:17;9.73;;;3.90;;
4569;SDS011;2297;51.442;6.996;2024-03-17T00:39:44;7.30;;;3.60;;
4569;SDS011;2297;51.442;6.996;2024-03-17T00:42:10;9.80;;;3.80;;
4569;SDS011;2297;51.442;6.996;2024-03-17T00:44:39;9.73;;;4.45;;
4569;SDS011;2297;51.442;6.996;2024-03-17T00:47:04;7.97;;;3.53;;
4569;SDS011;2297;51.442;6.996;2024-03-17T00:49:33;9.80;;;5.05;;
4569;SDS011;2297;51.442;6.996;2024-03-17T00:51:58;9.13;;;4.43;;
4569;SDS011;2297;51.442;6.996;2024-03-17T00:54:25;9.70;;;4.50;;
4569;SDS011;2297;51.442;6.996;2024-03-17T00:56:52;9.05;;;4.68;;
4569;SDS011;2297;51.442;6.996;2024-03-17T00:59:18;11.30;;;5.20;;
4569;SDS011;2297;51.442;6.996;2024-03-17T01:01:44;11.88;;;4.70;;
4569;SDS011;2297;51.442;6.996;2024-03-17T01:04:11;11.10;;;4.75;;
4569;SDS011;2297;51.442;6.996;2024-03-17T01:06:37;8.90;;;4.07;;
4569;SDS011;2297;51.442;6.996;2024-03-17T01:09:05;18.05;;;5.43;;
4569;SDS011;2297;51.442;6.996;2024-03-17T01:11:31;10.85;;;4.93;;
4569;SDS011;2297;51.442;6.996;2024-03-17T01:13:59;10.60;;;5.18;;
4569;SDS011;2297;51.442;6.996;2024-03-17T01:16:24;8.23;;;4.18;;
4569;SDS011;2297;51.442;6.996;2024-03-17T01:18:52;7.10;;;3.70;;
4569;SDS011;2297;51.442;6.996;2024-03-17T01:21:19;12.27;;;4.60;;
4569;SDS011;2297;51.442;6.996;2024-03-17T01:23:45;7.75;;;4.35;;
4569;SDS011;2297;51.442;6.996;2024-03-17T01:26:14;8.48;;;4.10;;
4569;SDS011;2297;51.442;6.996;2024-03-17T01:28:40;8.73;;;4.20;;
4569;SDS011;2297;51.442;6.996;2024-03-17T01:31:08;13.00;;;5.43;;
4569;SDS011;2297;51.442;6.996;2024-03-17T01:33:35;12.55;;;5.38;;
4569;SDS011;2297;51.442;6.996;2024-03-17T01:36:01;11.65;;;5.30;;
4569;SDS011;2297;51.442;6.996;2024-03-17T01:38:27;9.45;;;4.82;;
4569;SDS011;2297;51.442;6.996;2024-03-17T01:40:53;17.67;;;5.85;;
4569;SDS011;2297;51.442;6.996;2024-03-17T01:43:19;14.52;;;6.80;;
4569;SDS011;2297;51.442;6.996;2024-03-17T01:45:45;20.75;;;8.38;;
4569;SDS011;2297;51.442;6.996;2024-03-17T01:48:13;26.58;;;9.88;;
4569;SDS011;2297;51.442;6.996;2024-03-17T01:50:41;24.35;;;9.93;;
4569;SDS011;2297;51.442;6.996;2024-03-17T01:53:10;14.50;;;7.15;;
4569;SDS011;2297;51.442;6.996;2024-03-17T01:55:38;11.63;;;6.13;;
4569;SDS011;2297;51.442;6.996;2024-03-17T01:58:08;14.27;;;6.03;;
4569;SDS011;2297;51.442;6.996;2024-03-17T02:00:35;9.68;;;4.85;;
4569;SDS011;2297;51.442;6.996;2024-03-17T02:03:03;11.63;;;4.97;;
4569;SDS011;2297;51.442;6.996;2024-03-17T02:05:30;10.02;;;5.40;;
4569;SDS011;2297;51.442;6.996;2024-03-17T02:07:58;9.30;;;4.93;;
4569;SDS011;2297;51.442;6.996;2024-03-17T02:10:24;10.20;;;4.18;;
4569;SDS011;2297;51.442;6.996;2024-03-17T02:12:51;7.25;;;3.78;;
4569;SDS011;2297;51.442;6.996;2024-03-17T02:15:17;7.35;;;4.15;;
4569;SDS011;2297;51.442;6.996;2024-03-17T02:17:44;7.53;;;3.97;;
4569;SDS011;2297;51.442;6.996;2024-03-17T02:20:09;6.13;;;3.72;;
4569;SDS011;2297;51.442;6.996;2024-03-17T02:22:38;11.50;;;3.92;;
4569;SDS011;2297;51.442;6.996;2024-03-17T02:25:04;6.65;;;4.10;;
4569;SDS011;2297;51.442;6.996;2024-03-17T02:27:33;5.82;;;3.45;;
4569;SDS011;2297;51.442;6.996;2024-03-17T02:29:58;6.38;;;3.92;;
4569;SDS011;2297;51.442;6.996;2024-03-17T02:32:25;7.50;;;3.85;;
4569;SDS011;2297;51.442;6.996;2024-03-17T02:34:52;6.40;;;4.07;;
4569;SDS011;2297;51.442;6.996;2024-03-17T02:37:19;8.25;;;3.80;;
4569;SDS011;2297;51.442;6.996;2024-03-17T02:39:46;8.43;;;3.75;;
4569;SDS011;2297;51.442;6.996;2024-03-17T02:42:13;7.72;;;4.00;;
4569;SDS011;2297;51.442;6.996;2024-03-17T02:44:40;10.27;;;4.18;;
4569;SDS011;2297;51.442;6.996;2024-03-17T02:47:07;8.48;;;4.30;;
4569;SDS011;2297;51.442;6.996;2024-03-17T02:49:34;7.32;;;3.95;;
4569;SDS011;2297;51.442;6.996;2024-03-17T02:52:04;9.52;;;4.10;;
4569;SDS011;2297;51.442;6.996;2024-03-17T02:54:32;8.05;;;4.20;;
4569;SDS011;2297;51.442;6.996;2024-03-17T02:57:01;9.68;;;4.20;;
4569;SDS011;2297;51.442;6.996;2024-03-17T02:59:28;8.10;;;4.60;;
4569;SDS011;2297;51.442;6.996;2024-03-17T03:01:56;9.65;;;5.00;;
4569;SDS011;2297;51.442;6.996;2024-03-17T03:04:23;10.35;;;4.65;;
4569;SDS011;2297;51.442;6.996;2024-03-17T03:06:50;12.90;;;5.30;;
4569;SDS011;2297;51.442;6.996;2024-03-17T03:09:16;9.95;;;5.10;;
4569;SDS011;2297;51.442;6.996;2024-03-17T03:11:50;13.88;;;5.35;;
4569;SDS011;2297;51.442;6.996;2024-03-17T03:14:18;10.52;;;5.40;;
4569;SDS011;2297;51.442;6.996;2024-03-17T03:16:45;7.05;;;4.50;;
4569;SDS011;2297;51.442;6.996;2024-03-17T03:19:12;13.75;;;5.00;;
4569;SDS011;2297;51.442;6.996;2024-03-17T03:21:39;8.65;;;4.88;;
4569;SDS011;2297;51.442;6.996;2024-03-17T03:24:06;8.30;;;5.10;;
4569;SDS011;2297;51.442;6.996;2024-03-17T03:26:32;9.85;;;5.57;;
4569;SDS011;2297;51.442;6.996;2024-03-17T03:28:59;12.77;;;5.55;;
4569;SDS011;2297;51.442;6.996;2024-03-17T03:31:27;14.27;;;6.03;;
4569;SDS011;2297;51.442;6.996;2024-03-17T03:33:54;10.63;;;5.82;;
4569;SDS011;2297;51.442;6.996;2024-03-17T03:36:22;12.13;;;5.38;;
4569;SDS011;2297;51.442;6.996;2024-03-17T03:38:48;11.90;;;6.35;;
4569;SDS011;2297;51.442;6.996;2024-03-17T03:41:15;11.15;;;5.82;;
4569;SDS011;2297;51.442;6.996;2024-03-17T03:43:42;10.30;;;6.03;;
4569;SDS011;2297;51.442;6.996;2024-03-17T03:46:11;13.38;;;6.45;;
4569;SDS011;2297;51.442;6.996;2024-03-17T03:48:39;14.65;;;6.82;;
4569;SDS011;2297;51.442;6.996;2024-03-17T03:51:05;13.48;;;6.80;;
4569;SDS011;2297;51.442;6.996;2024-03-17T03:53:33;18.48;;;6.03;;
4569;SDS011;2297;51.442;6.996;2024-03-17T03:55:59;10.90;;;5.95;;
4569;SDS011;2297;51.442;6.996;2024-03-17T03:58:27;12.77;;;6.75;;
4569;SDS011;2297;51.442;6.996;2024-03-17T04:00:54;16.90;;;6.70;;
4569;SDS011;2297;51.442;6.996;2024-03-17T04:03:20;10.82;;;5.63;;
4569;SDS011;2297;51.442;6.996;2024-03-17T04:05:48;12.30;;;6.57;;
4569;SDS011;2297;51.442;6.996;2024-03-17T04:08:15;11.70;;;6.82;;
4569;SDS011;2297;51.442;6.996;2024-03-17T04:10:43;13.70;;;7.05;;
4569;SDS011;2297;51.442;6.996;2024-03-17T04:13:09;21.83;;;6.93;;
4569;SDS011;2297;51.442;6.996;2024-03-17T04:15:37;17.50;;;8.15;;
4569;SDS011;2297;51.442;6.996;2024-03-17T04:18:04;13.45;;;6.18;;
4569;SDS011;2297;51.442;6.996;2024-03-17T04:20:31;12.15;;;6.68;;
4569;SDS011;2297;51.442;6.996;2024-03-17T04:22:58;13.70;;;6.38;;
4569;SDS011;2297;51.442;6.996;2024-03-17T04:25:25;14.13;;;6.65;;
4569;SDS011;2297;51.442;6.996;2024-03-17T04:27:52;16.00;;;6.75;;
4569;SDS011;2297;51.442;6.996;2024-03-17T04:30:19;11.05;;;6.82;;
4569;SDS011;2297;51.442;6.996;2024-03-17T04:32:45;16.83;;;7.30;;
4569;SDS011;2297;51.442;6.996;2024-03-17T04:35:12;12.90;;;6.50;;
4569;SDS011;2297;51.442;6.996;2024-03-17T04:37:39;19.95;;;7.60;;
4569;SDS011;2297;51.442;6.996;2024-03-17T04:40:08;14.55;;;6.60;;
4569;SDS011;2297;51.442;6.996;2024-03-17T04:42:38;11.88;;;6.65;;
4569;SDS011;2297;51.442;6.996;2024-03-17T04:45:06;10.95;;;6.28;;
4569;SDS011;2297;51.442;6.996;2024-03-17T04:47:34;10.48;;;6.15;;
4569;SDS011;2297;51.442;6.996;2024-03-17T04:50:01;13.55;;;6.47;;
4569;SDS011;2297;51.442;6.996;2024-03-17T04:52:29;11.88;;;5.78;;
4569;SDS011;2297;51.442;6.996;2024-03-17T04:54:55;11.13;;;6.78;;
4569;SDS011;2297;51.442;6.996;2024-03-17T04:57:23;15.05;;;7.07;;
4569;SDS011;2297;51.442;6.996;2024-03-17T04:59:50;13.35;;;6.53;;
4569;SDS011;2297;51.442;6.996;2024-03-17T05:02:17;14.65;;;6.70;;
4569;SDS011;2297;51.442;6.996;2024-03-17T05:04:43;15.27;;;7.75;;
4569;SDS011;2297;51.442;6.996;2024-03-17T05:07:10;11.07;;;6.25;;
4569;SDS011;2297;51.442;6.996;2024-03-17T05:09:36;13.63;;;6.10;;
4569;SDS011;2297;51.442;6.996;2024-03-17T05:12:03;12.77;;;7.22;;
4569;SDS011;2297;51.442;6.996;2024-03-17T05:14:34;12.02;;;6.57;;
4569;SDS011;2297;51.442;6.996;2024-03-17T05:17:01;9.88;;;6.20;;
4569;SDS011;2297;51.442;6.996;2024-03-17T05:19:28;16.50;;;6.93;;
4569;SDS011;2297;51.442;6.996;2024-03-17T05:21:54;13.15;;;6.40;;
4569;SDS011;2297;51.442;6.996;2024-03-17T05:24:21;12.25;;;6.10;;
4569;SDS011;2297;51.442;6.996;2024-03-17T05:26:47;11.05;;;6.03;;
4569;SDS011;2297;51.442;6.996;2024-03-17T05:29:14;11.30;;;6.60;;
4569;SDS011;2297;51.442;6.996;2024-03-17T05:31:42;17.80;;;6.53;;
4569;SDS011;2297;51.442;6.996;2024-03-17T05:34:09;12.45;;;6.53;;
4569;SDS011;2297;51.442;6.996;2024-03-17T05:36:36;17.13;;;7.00;;
4569;SDS011;2297;51.442;6.996;2024-03-17T05:39:03;10.35;;;6.43;;
4569;SDS011;2297;51.442;6.996;2024-03-17T05:41:29;11.40;;;6.10;;
4569;SDS011;2297;51.442;6.996;2024-03-17T05:43:56;14.40;;;6.43;;
4569;SDS011;2297;51.442;6.996;2024-03-17T05:46:23;16.25;;;7.22;;
4569;SDS011;2297;51.442;6.996;2024-03-17T05:48:53;12.50;;;5.95;;
4569;SDS011;2297;51.442;6.996;2024-03-17T05:51:20;12.27;;;6.10;;
4569;SDS011;2297;51.442;6.996;2024-03-17T05:53:46;11.52;;;6.75;;
4569;SDS011;2297;51.442;6.996;2024-03-17T05:56:13;10.85;;;6.53;;
4569;SDS011;2297;51.442;6.996;2024-03-17T05:58:40;9.95;;;5.57;;
4569;SDS011;2297;51.442;6.996;2024-03-17T06:01:07;10.90;;;6.25;;
4569;SDS011;2297;51.442;6.996;2024-03-17T06:03:34;12.63;;;6.00;;
4569;SDS011;2297;51.442;6.996;2024-03-17T06:06:03;10.32;;;5.53;;
4569;SDS011;2297;51.442;6.996;2024-03-17T06:08:32;10.07;;;5.20;;
4569;SDS011;2297;51.442;6.996;2024-03-17T06:10:59;9.63;;;5.75;;
4569;SDS011;2297;51.442;6.996;2024-03-17T06:13:26;11.68;;;4.82;;
4569;SDS011;2297;51.442;6.996;2024-03-17T06:15:53;8.90;;;5.90;;
4569;SDS011;2297;51.442;6.996;2024-03-17T06:18:22;11.07;;;5.72;;
4569;SDS011;2297;51.442;6.996;2024-03-17T06:20:49;9.82;;;5.22;;
4569;SDS011;2297;51.442;6.996;2024-03-17T06:23:20;12.00;;;5.68;;
4569;SDS011;2297;51.442;6.996;2024-03-17T06:25:47;13.70;;;5.50;;
4569;SDS011;2297;51.442;6.996;2024-03-17T06:28:16;12.77;;;5.63;;
4569;SDS011;2297;51.442;6.996;2024-03-17T06:30:43;10.77;;;5.80;;
4569;SDS011;2297;51.442;6.996;2024-03-17T06:33:12;9.18;;;5.57;;
4569;SDS011;2297;51.442;6.996;2024-03-17T06:35:40;10.15;;;5.35;;
4569;SDS011;2297;51.442;6.996;2024-03-17T06:38:06;8.68;;;5.05;;
4569;SDS011;2297;51.442;6.996;2024-03-17T06:40:36;10.27;;;5.10;;
4569;SDS011;2297;51.442;6.996;2024-03-17T06:43:03;15.63;;;5.00;;
4569;SDS011;2297;51.442;6.996;2024-03-17T06:45:30;9.63;;;5.18;;
4569;SDS011;2297;51.442;6.996;2024-03-17T06:47:57;8.45;;;4.90;;
4569;SDS011;2297;51.442;6.996;2024-03-17T06:50:23;6.97;;;4.43;;
4569;SDS011;2297;51.442;6.996;2024-03-17T06:52:50;8.15;;;4.63;;
4569;SDS011;2297;51.442;6.996;2024-03-17T06:55:17;10.02;;;4.80;;
4569;SDS011;2297;51.442;6.996;2024-03-17T06:57:47;9.73;;;4.78;;
4569;SDS011;2297;51.442;6.996;2024-03-17T07:00:14;6.10;;;4.25;;
4569;SDS011;2297;51.442;6.996;2024-03-17T07:02:42;7.18;;;4.82;;
4569;SDS011;2297;51.442;6.996;2024-03-17T07:05:12;7.63;;;4.47;;
4569;SDS011;2297;51.442;6.996;2024-03-17T07:07:40;7.82;;;4.40;;
4569;SDS011;2297;51.442;6.996;2024-03-17T07:10:07;9.18;;;4.70;;
4569;SDS011;2297;51.442;6.996;2024-03-17T07:12:41;9.15;;;4.35;;
4569;SDS011;2297;51.442;6.996;2024-03-17T07:15:09;10.00;;;4.28;;
4569;SDS011;2297;51.442;6.996;2024-03-17T07:17:37;7.47;;;4.60;;
4569;SDS011;2297;51.442;6.996;2024-03-17T07:20:04;7.93;;;4.28;;
4569;SDS011;2297;51.442;6.996;2024-03-17T07:22:33;7.13;;;3.83;;
4569;SDS011;2297;51.442;6.996;2024-03-17T07:25:00;5.38;;;3.92;;
4569;SDS011;2297;51.442;6.996;2024-03-17T07:27:27;6.47;;;4.50;;
4569;SDS011;2297;51.442;6.996;2024-03-17T07:29:54;6.55;;;4.32;;
4569;SDS011;2297;51.442;6.996;2024-03-17T07:32:22;7.47;;;4.18;;
4569;SDS011;2297;51.442;6.996;2024-03-17T07:34:49;7.05;;;4.10;;
4569;SDS011;2297;51.442;6.996;2024-03-17T07:37:15;8.48;;;3.80;;
4569;SDS011;2297;51.442;6.996;2024-03-17T07:39:42;5.15;;;3.13;;
4569;SDS011;2297;51.442;6.996;2024-03-17T07:42:08;12.43;;;5.13;;
4569;SDS011;2297;51.442;6.996;2024-03-17T07:44:36;5.60;;;3.47;;
4569;SDS011;2297;51.442;6.996;2024-03-17T07:47:03;4.60;;;3.00;;
4569;SDS011;2297;51.442;6.996;2024-03-17T07:49:31;3.88;;;2.70;;
4569;SDS011;2297;51.442;6.996;2024-03-17T07:51:58;3.55;;;2.90;;
4569;SDS011;2297;51.442;6.996;2024-03-17T07:54:25;3.53;;;2.70;;
4569;SDS011;2297;51.442;6.996;2024-03-17T07:56:52;4.57;;;2.88;;
4569;SDS011;2297;51.442;6.996;2024-03-17T07:59:20;4.38;;;2.72;;
4569;SDS011;2297;51.442;6.996;2024-03-17T08:01:46;2.95;;;2.42;;
4569;SDS011;2297;51.442;6.996;2024-03-17T08:04:13;5.18;;;2.85;;
4569;SDS011;2297;51.442;6.996;2024-03-17T08:06:41;5.90;;;2.83;;
4569;SDS011;2297;51.442;6.996;2024-03-17T08:09:08;5.47;;;3.05;;
4569;SDS011;2297;51.442;6.996;2024-03-17T08:11:35;5.07;;;2.85;;
4569;SDS011;2297;51.442;6.996;2024-03-17T08:14:01;4.30;;;2.80;;
4569;SDS011;2297;51.442;6.996;2024-03-17T08:16:28;5.47;;;2.95;;
4569;SDS011;2297;51.442;6.996;2024-03-17T08:18:55;4.95;;;2.92;;
4569;SDS011;2297;51.442;6.996;2024-03-17T08:21:21;4.50;;;2.85;;
4569;SDS011;2297;51.442;6.996;2024-03-17T08:23:50;3.63;;;2.80;;
4569;SDS011;2297;51.442;6.996;2024-03-17T08:26:17;4.60;;;2.72;;
4569;SDS011;2297;51.442;6.996;2024-03-17T08:28:44;4.60;;;2.88;;
4569;SDS011;2297;51.442;6.996;2024-03-17T08:31:11;4.20;;;2.78;;
4569;SDS011;2297;51.442;6.996;2024-03-17T08:33:40;8.18;;;3.00;;
4569;SDS011;2297;51.442;6.996;2024-03-17T08:36:07;3.38;;;2.88;;
4569;SDS011;2297;51.442;6.996;2024-03-17T08:38:35;5.57;;;3.17;;
4569;SDS011;2297;51.442;6.996;2024-03-17T08:41:05;3.88;;;2.97;;
4569;SDS011;2297;51.442;6.996;2024-03-17T08:43:32;4.15;;;3.05;;
4569;SDS011;2297;51.442;6.996;2024-03-17T08:46:00;5.57;;;3.60;;
4569;SDS011;2297;51.442;6.996;2024-03-17T08:48:29;5.78;;;3.17;;
4569;SDS011;2297;51.442;6.996;2024-03-17T08:50:58;5.30;;;3.10;;
4569;SDS011;2297;51.442;6.996;2024-03-17T08:53:26;5.32;;;3.25;;
4569;SDS011;2297;51.442;6.996;2024-03-17T08:55:53;3.40;;;2.80;;
4569;SDS011;2297;51.442;6.996;2024-03-17T08:58:22;4.35;;;2.88;;
4569;SDS011;2297;51.442;6.996;2024-03-17T09:00:49;3.95;;;2.95;;
4569;SDS011;2297;51.442;6.996;2024-03-17T09:03:16;6.00;;;2.97;;
4569;SDS011;2297;51.442;6.996;2024-03-17T09:05:43;5.35;;;3.10;;
4569;SDS011;2297;51.442;6.996;2024-03-17T09:08:14;5.90;;;2.88;;
4569;SDS011;2297;51.442;6.996;2024-03-17T09:10:43;4.05;;;2.67;;
4569;SDS011;2297;51.442;6.996;2024-03-17T09:13:10;4.68;;;2.83;;
4569;SDS011;2297;51.442;6.996;2024-03-17T09:15:40;4.45;;;2.97;;
4569;SDS011;2297;51.442;6.996;2024-03-17T09:18:07;6.55;;;3.22;;
4569;SDS011;2297;51.442;6.996;2024-03-17T09:20:34;8.18;;;3.30;;
4569;SDS011;2297;51.442;6.996;2024-03-17T09:23:00;5.25;;;3.10;;
4569;SDS011;2297;51.442;6.996;2024-03-17T09:25:27;5.30;;;3.03;;
4569;SDS011;2297;51.442;6.996;2024-03-17T09:27:55;6.25;;;3.22;;
4569;SDS011;2297;51.442;6.996;2024-03-17T09:30:21;4.88;;;3.20;;
4569;SDS011;2297;51.442;6.996;2024-03-17T09:32:49;4.28;;;3.00;;
4569;SDS011;2297;51.442;6.996;2024-03-17T09:35:16;5.38;;;3.60;;
4569;SDS011;2297;51.442;6.996;2024-03-17T09:37:42;5.63;;;3.35;;
4569;SDS011;2297;51.442;6.996;2024-03-17T09:40:11;4.82;;;2.95;;
4569;SDS011;2297;51.442;6.996;2024-03-17T09:42:43;9.45;;;3.83;;
4569;SDS011;2297;51.442;6.996;2024-03-17T09:45:10;10.20;;;3.60;;
4569;SDS011;2297;51.442;6.996;2024-03-17T09:47:37;7.63;;;3.08;;
4569;SDS011;2297;51.442;6.996;2024-03-17T09:50:08;5.05;;;3.42;;
4569;SDS011;2297;51.442;6.996;2024-03-17T09:52:39;6.60;;;3.15;;
4569;SDS011;2297;51.442;6.996;2024-03-17T09:55:09;4.25;;;3.00;;
4569;SDS011;2297;51.442;6.996;2024-03-17T09:57:40;6.13;;;2.95;;
4569;SDS011;2297;51.442;6.996;2024-03-17T10:00:09;4.50;;;2.83;;
4569;SDS011;2297;51.442;6.996;2024-03-17T10:02:41;6.53;;;3.20;;
4569;SDS011;2297;51.442;6.996;2024-03-17T10:05:19;4.72;;;3.17;;
4569;SDS011;2297;51.442;6.996;2024-03-17T10:07:47;8.90;;;3.35;;
4569;SDS011;2297;51.442;6.996;2024-03-17T10:10:14;6.25;;;3.22;;
4569;SDS011;2297;51.442;6.996;2024-03-17T10:12:42;4.82;;;3.22;;
4569;SDS011;2297;51.442;6.996;2024-03-17T10:15:10;4.32;;;3.05;;
4569;SDS011;2297;51.442;6.996;2024-03-17T10:17:37;9.20;;;3.42;;
4569;SDS011;2297;51.442;6.996;2024-03-17T10:20:14;6.32;;;3.60;;
4569;SDS011;2297;51.442;6.996;2024-03-17T10:23:02;5.43;;;3.30;;
4569;SDS011;2297;51.442;6.996;2024-03-17T10:25:31;5.63;;;3.42;;
4569;SDS011;2297;51.442;6.996;2024-03-17T10:27:58;6.15;;;3.10;;
4569;SDS011;2297;51.442;6.996;2024-03-17T10:30:26;7.13;;;3.65;;
4569;SDS011;2297;51.442;6.996;2024-03-17T10:32:54;5.43;;;3.47;;
4569;SDS011;2297;51.442;6.996;2024-03-17T10:35:25;6.13;;;3.75;;
4569;SDS011;2297;51.442;6.996;2024-03-17T10:37:53;5.18;;;3.60;;
4569;SDS011;2297;51.442;6.996;2024-03-17T10:40:22;6.13;;;3.30;;
4569;SDS011;2297;51.442;6.996;2024-03-17T10:42:50;5.90;;;3.72;;
4569;SDS011;2297;51.442;6.996;2024-03-17T10:45:17;8.25;;;3.70;;
4569;SDS011;2297;51.442;6.996;2024-03-17T10:47:47;5.93;;;3.75;;
4569;SDS011;2297;51.442;6.996;2024-03-17T10:50:16;6.93;;;3.72;;
4569;SDS011;2297;51.442;6.996;2024-03-17T10:52:44;10.75;;;4.03;;
4569;SDS011;2297;51.442;6.996;2024-03-17T10:55:19;9.30;;;3.63;;
4569;SDS011;2297;51.442;6.996;2024-03-17T10:57:49;8.13;;;4.53;;
4569;SDS011;2297;51.442;6.996;2024-03-17T11:00:17;7.47;;;3.67;;
4569;SDS011;2297;51.442;6.996;2024-03-17T11:02:47;6.35;;;3.85;;
4569;SDS011;2297;51.442;6.996;2024-03-17T11:05:15;7.07;;;4.00;;
4569;SDS011;2297;51.442;6.996;2024-03-17T11:07:45;6.35;;;3.83;;
4569;SDS011;2297;51.442;6.996;2024-03-17T11:10:18;7.20;;;3.75;;
4569;SDS011;2297;51.442;6.996;2024-03-17T11:12:48;4.75;;;3.83;;
4569;SDS011;2297;51.442;6.996;2024-03-17T11:15:37;8.38;;;4.47;;
4569;SDS011;2297;51.442;6.996;2024-03-17T11:21:07;4.55;;;3.50;;
4569;SDS011;2297;51.442;6.996;2024-03-17T11:23:54;8.90;;;4.55;;
4569;SDS011;2297;51.442;6.996;2024-03-17T11:26:26;4.80;;;3.70;;
4569;SDS011;2297;51.442;6.996;2024-03-17T11:28:55;7.15;;;3.92;;
4569;SDS011;2297;51.442;6.996;2024-03-17T11:34:27;5.78;;;3.88;;
4569;SDS011;2297;51.442;6.996;2024-03-17T11:37:04;9.07;;;4.65;;
4569;SDS011;2297;51.442;6.996;2024-03-17T11:39:49;7.20;;;4.35;;
4569;SDS011;2297;51.442;6.996;2024-03-17T11:42:24;8.75;;;4.18;;
4569;SDS011;2297;51.442;6.996;2024-03-17T11:45:02;10.25;;;4.20;;
4569;SDS011;2297;51.442;6.996;2024-03-17T11:47:35;9.30;;;4.07;;
4569;SDS011;2297;51.442;6.996;2024-03-17T11:50:03;6.85;;;4.50;;
4569;SDS011;2297;51.442;6.996;2024-03-17T11:52:31;8.13;;;4.07;;
4569;SDS011;2297;51.442;6.996;2024-03-17T11:54:57;7.55;;;3.72;;
4569;SDS011;2297;51.442;6.996;2024-03-17T11:57:24;9.77;;;4.53;;
4569;SDS011;2297;51.442;6.996;2024-03-17T11:59:52;5.97;;;3.90;;
4569;SDS011;2297;51.442;6.996;2024-03-17T12:02:22;7.10;;;4.40;;
4569;SDS011;2297;51.442;6.996;2024-03-17T12:04:50;8.20;;;3.83;;
4569;SDS011;2297;51.442;6.996;2024-03-17T12:07:18;7.88;;;3.70;;
4569;SDS011;2297;51.442;6.996;2024-03-17T12:09:46;7.28;;;4.10;;
4569;SDS011;2297;51.442;6.996;2024-03-17T12:12:16;4.97;;;3.55;;
4569;SDS011;2297;51.442;6.996;2024-03-17T12:14:42;7.28;;;3.80;;
4569;SDS011;2297;51.442;6.996;2024-03-17T12:17:10;4.22;;;3.45;;
4569;SDS011;2297;51.442;6.996;2024-03-17T12:19:37;5.45;;;3.45;;
4569;SDS011;2297;51.442;6.996;2024-03-17T12:22:04;7.85;;;3.55;;
4569;SDS011;2297;51.442;6.996;2024-03-17T12:24:32;8.55;;;4.32;;
4569;SDS011;2297;51.442;6.996;2024-03-17T12:26:59;5.88;;;3.50;;
4569;SDS011;2297;51.442;6.996;2024-03-17T12:29:28;7.75;;;3.65;;
4569;SDS011;2297;51.442;6.996;2024-03-17T12:31:58;7.82;;;3.80;;
4569;SDS011;2297;51.442;6.996;2024-03-17T12:34:26;6.88;;;3.22;;
4569;SDS011;2297;51.442;6.996;2024-03-17T12:36:54;6.22;;;3.70;;
4569;SDS011;2297;51.442;6.996;2024-03-17T12:39:22;6.32;;;3.47;;
4569;SDS011;2297;51.442;6.996;2024-03-17T12:42:02;7.32;;;3.60;;
4569;SDS011;2297;51.442;6.996;2024-03-17T12:44:29;5.80;;;3.53;;
4569;SDS011;2297;51.442;6.996;2024-03-17T12:46:56;6.03;;;3.78;;
4569;SDS011;2297;51.442;6.996;2024-03-17T12:49:25;6.35;;;3.60;;
4569;SDS011;2297;51.442;6.996;2024-03-17T12:51:51;6.55;;;3.17;;
4569;SDS011;2297;51.442;6.996;2024-03-17T12:54:23;7.30;;;3.70;;
4569;SDS011;2297;51.442;6.996;2024-03-17T12:56:50;6.90;;;3.70;;
4569;SDS011;2297;51.442;6.996;2024-03-17T12:59:40;8.55;;;3.95;;
4569;SDS011;2297;51.442;6.996;2024-03-17T13:02:34;5.05;;;3.10;;
4569;SDS011;2297;51.442;6.996;2024-03-17T13:05:07;7.32;;;3.40;;
4569;SDS011;2297;51.442;6.996;2024-03-17T13:07:40;7.10;;;3.97;;
4569;SDS011;2297;51.442;6.996;2024-03-17T13:10:08;5.05;;;3.25;;
4569;SDS011;2297;51.442;6.996;2024-03-17T13:12:35;6.93;;;3.17;;
4569;SDS011;2297;51.442;6.996;2024-03-17T13:15:02;6.38;;;3.50;;
4569;SDS011;2297;51.442;6.996;2024-03-17T13:17:30;6.88;;;3.63;;
4569;SDS011;2297;51.442;6.996;2024-03-17T13:19:58;6.18;;;3.70;;
4569;SDS011;2297;51.442;6.996;2024-03-17T13:22:25;3.95;;;3.10;;
4569;SDS011;2297;51.442;6.996;2024-03-17T13:24:52;4.85;;;3.10;;
4569;SDS011;2297;51.442;6.996;2024-03-17T13:27:20;9.40;;;3.92;;
4569;SDS011;2297;51.442;6.996;2024-03-17T13:29:49;5.80;;;3.53;;
4569;SDS011;2297;51.442;6.996;2024-03-17T13:32:16;5.38;;;3.13;;
4569;SDS011;2297;51.442;6.996;2024-03-17T13:34:43;5.20;;;3.20;;
4569;SDS011;2297;51.442;6.996;2024-03-17T13:37:10;8.07;;;3.47;;
4569;SDS011;2297;51.442;6.996;2024-03-17T13:39:37;8.30;;;3.83;;
4569;SDS011;2297;51.442;6.996;2024-03-17T13:42:04;6.70;;;3.78;;
4569;SDS011;2297;51.442;6.996;2024-03-17T13:44:32;5.53;;;3.65;;
4569;SDS011;2297;51.442;6.996;2024-03-17T13:46:59;6.93;;;3.70;;
4569;SDS011;2297;51.442;6.996;2024-03-17T13:49:28;7.00;;;3.03;;
4569;SDS011;2297;51.442;6.996;2024-03-17T13:51:55;6.28;;;3.40;;
4569;SDS011;2297;51.442;6.996;2024-03-17T13:54:22;4.70;;;3.25;;
4569;SDS011;2297;51.442;6.996;2024-03-17T13:56:49;4.85;;;3.08;;
4569;SDS011;2297;51.442;6.996;2024-03-17T13:59:15;7.38;;;3.55;;
4569;SDS011;2297;51.442;6.996;2024-03-17T14:01:43;4.50;;;2.75;;
4569;SDS011;2297;51.442;6.996;2024-03-17T14:04:12;4.68;;;3.13;;
4569;SDS011;2297;51.442;6.996;2024-03-17T14:06:40;5.95;;;3.30;;
4569;SDS011;2297;51.442;6.996;2024-03-17T14:09:07;4.65;;;2.78;;
4569;SDS011;2297;51.442;6.996;2024-03-17T14:11:35;6.20;;;3.45;;
4569;SDS011;2297;51.442;6.996;2024-03-17T14:14:02;6.25;;;3.17;;
4569;SDS011;2297;51.442;6.996;2024-03-17T14:16:30;4.85;;;3.00;;
4569;SDS011;2297;51.442;6.996;2024-03-17T14:18:59;5.72;;;2.97;;
4569;SDS011;2297;51.442;6.996;2024-03-17T14:21:26;10.45;;;3.78;;
4569;SDS011;2297;51.442;6.996;2024-03-17T14:23:53;6.05;;;3.33;;
4569;SDS011;2297;51.442;6.996;2024-03-17T14:26:20;15.77;;;3.50;;
4569;SDS011;2297;51.442;6.996;2024-03-17T14:28:46;3.65;;;2.80;;
4569;SDS011;2297;51.442;6.996;2024-03-17T14:31:13;5.95;;;2.92;;
4569;SDS011;2297;51.442;6.996;2024-03-17T14:33:40;4.55;;;2.90;;
4569;SDS011;2297;51.442;6.996;2024-03-17T14:36:08;5.72;;;2.58;;
4569;SDS011;2297;51.442;6.996;2024-03-17T14:38:35;3.92;;;2.65;;
4569;SDS011;2297;51.442;6.996;2024-03-17T14:41:01;5.60;;;2.83;;
4569;SDS011;2297;51.442;6.996;2024-03-17T14:43:29;4.63;;;2.85;;
4569;SDS011;2297;51.442;6.996;2024-03-17T14:45:56;5.57;;;3.30;;
4569;SDS011;2297;51.442;6.996;2024-03-17T14:48:23;5.15;;;3.15;;
4569;SDS011;2297;51.442;6.996;2024-03-17T14:50:49;3.45;;;2.40;;
4569;SDS011;2297;51.442;6.996;2024-03-17T14:53:18;4.57;;;2.80;;
4569;SDS011;2297;51.442;6.996;2024-03-17T14:55:45;4.00;;;2.30;;
4569;SDS011;2297;51.442;6.996;2024-03-17T14:58:12;6.28;;;2.55;;
4569;SDS011;2297;51.442;6.996;2024-03-17T15:00:38;3.78;;;2.47;;
4569;SDS011;2297;51.442;6.996;2024-03-17T15:03:05;5.80;;;2.53;;
4569;SDS011;2297;51.442;6.996;2024-03-17T15:05:32;3.83;;;2.40;;
4569;SDS011;2297;51.442;6.996;2024-03-17T15:07:59;5.47;;;2.90;;
4569;SDS011;2297;51.442;6.996;2024-03-17T15:10:28;4.57;;;2.13;;
4569;SDS011;2297;51.442;6.996;2024-03-17T15:12:55;6.13;;;2.60;;
4569;SDS011;2297;51.442;6.996;2024-03-17T15:15:21;10.10;;;3.47;;
4569;SDS011;2297;51.442;6.996;2024-03-17T15:17:48;4.65;;;2.50;;
4569;SDS011;2297;51.442;6.996;2024-03-17T15:20:16;4.88;;;2.30;;